Aérodrome :
LOGIN :

S'inscrire | Disclaimer

   EN    FR    IT 

 










Légende :    VFR   VFR Marginal   IFR   IFR Intensif   IFR Très Intensif
Visi : 
Plafond : 
>= 8 km
>= 3000ft
5 à 8 km
1000 à 3000 ft
1500m à 5 km
500 à 1000 ft
800 à 1500m
200 à 500 ft
< 800m
< 200 ft
Symboles :   Orages  Brouillard  Fortes neiges  Fortes précipitations  Vent > 20 kt
SIGMETs :   Divers  Orages  Givrage  Turbulence  Onde Orograph.  Cendres Volcan.






- Altitude de l'aérodrome : 433 ft
- Code IATA : CCF


LFMK - Carcassonne

DERNIER METAR :
  • 260100Z AUTO 08011KT 9999 BKN025 OVC032 14/11 Q1016

METARs EXPIRÉS :
  • 260030Z AUTO 08010KT 9999 BKN027 BKN032 14/11 Q1016
  • 260000Z AUTO 09013KT 060V120 9999 FEW024 14/11 Q1016
  • 252330Z AUTO 09012KT 9999 FEW020 SCT027 14/11 Q1016
  • 252300Z AUTO 09011KT 060V130 9999 BKN021 BKN028 14/11 Q1016
  • 252230Z AUTO 08015KT 9999 BKN020 BKN026 BKN031 14/12 Q1015

TAF TAF LFMK
Valide du 25 à 15h jusqu'au 26 à 15h UTC


251400Z 2515/2615 09020G30KT 9999 SCT022
BECMG 2515/2517 BKN020
BECMG 2520/2522 09015G25KT
TEMPO 2600/2615 09020G30KT
PROB40
TEMPO 2608/2615 RA BKN010



MET'MAP, la Météo Aéronautique d'un coup d'oeil ! - Copyright ORBIFLY Décembre 2007 - Disclaimer

ORBIFLY MET'MAP TEAM :

Programmation & Développement : Alexandra Zaïnal
Sur une idée originale de : Baudouin d'Aumeries
Assistance à la programmation : Marc-Olivier Méhu
Soutien technique & logistique : Manuel Goepfert

Contact : metmap@orbifly.com




SOURCES & CREDITS :

   NOAA